sensor_id;sensor_type;location;lat;lon;timestamp;pressure;altitude;pressure_sealevel;temperature;humidity
29315;BME280;16320;53.954;9.506;2023-02-03T00:02:00;101673.44;;;6.02;100.00
29315;BME280;16320;53.954;9.506;2023-02-03T00:05:06;101669.06;;;6.02;100.00
29315;BME280;16320;53.954;9.506;2023-02-03T00:08:11;101664.53;;;6.12;100.00
29315;BME280;16320;53.954;9.506;2023-02-03T00:11:16;101679.19;;;6.21;100.00
29315;BME280;16320;53.954;9.506;2023-02-03T00:14:20;101662.56;;;6.25;100.00
29315;BME280;16320;53.954;9.506;2023-02-03T00:17:24;101669.50;;;6.28;100.00
29315;BME280;16320;53.954;9.506;2023-02-03T00:20:30;101666.13;;;6.22;100.00
29315;BME280;16320;53.954;9.506;2023-02-03T00:23:35;101663.44;;;6.27;100.00
29315;BME280;16320;53.954;9.506;2023-02-03T00:26:42;101666.03;;;6.27;100.00
29315;BME280;16320;53.954;9.506;2023-02-03T00:29:47;101651.16;;;6.32;100.00
29315;BME280;16320;53.954;9.506;2023-02-03T00:32:51;101656.31;;;6.35;100.00
29315;BME280;16320;53.954;9.506;2023-02-03T00:35:55;101651.09;;;6.35;100.00
29315;BME280;16320;53.954;9.506;2023-02-03T00:39:00;101653.69;;;6.37;100.00
29315;BME280;16320;53.954;9.506;2023-02-03T00:42:05;101654.47;;;6.40;100.00
29315;BME280;16320;53.954;9.506;2023-02-03T00:45:10;101643.97;;;6.44;100.00
29315;BME280;16320;53.954;9.506;2023-02-03T00:48:14;101627.41;;;6.45;100.00
29315;BME280;16320;53.954;9.506;2023-02-03T00:51:18;101626.47;;;6.49;100.00
29315;BME280;16320;53.954;9.506;2023-02-03T00:54:24;101623.78;;;6.53;100.00
29315;BME280;16320;53.954;9.506;2023-02-03T00:57:29;101628.13;;;6.53;100.00
29315;BME280;16320;53.954;9.506;2023-02-03T01:00:33;101630.72;;;6.53;100.00
29315;BME280;16320;53.954;9.506;2023-02-03T01:03:38;101616.78;;;6.54;100.00
29315;BME280;16320;53.954;9.506;2023-02-03T01:06:42;101621.97;;;6.57;100.00
29315;BME280;16320;53.954;9.506;2023-02-03T01:09:47;101614.13;;;6.57;100.00
29315;BME280;16320;53.954;9.506;2023-02-03T01:12:51;101603.66;;;6.58;100.00
29315;BME280;16320;53.954;9.506;2023-02-03T01:15:56;101585.41;;;6.57;100.00
29315;BME280;16320;53.954;9.506;2023-02-03T01:19:00;101581.03;;;6.57;100.00
29315;BME280;16320;53.954;9.506;2023-02-03T01:22:05;101571.50;;;6.56;100.00
29315;BME280;16320;53.954;9.506;2023-02-03T01:25:09;101555.03;;;6.53;100.00
29315;BME280;16320;53.954;9.506;2023-02-03T01:28:13;101546.31;;;6.54;100.00
29315;BME280;16320;53.954;9.506;2023-02-03T01:31:22;101540.22;;;6.55;100.00
29315;BME280;16320;53.954;9.506;2023-02-03T01:34:27;101534.16;;;6.53;100.00
29315;BME280;16320;53.954;9.506;2023-02-03T01:37:32;101529.72;;;6.58;100.00
29315;BME280;16320;53.954;9.506;2023-02-03T01:40:44;101534.09;;;6.56;100.00
29315;BME280;16320;53.954;9.506;2023-02-03T01:43:51;101533.25;;;6.55;100.00
29315;BME280;16320;53.954;9.506;2023-02-03T01:46:56;101539.31;;;6.56;100.00
29315;BME280;16320;53.954;9.506;2023-02-03T01:50:19;101529.75;;;6.56;100.00
29315;BME280;16320;53.954;9.506;2023-02-03T01:53:24;101535.81;;;6.57;100.00
29315;BME280;16320;53.954;9.506;2023-02-03T01:56:33;101534.03;;;6.59;100.00
29315;BME280;16320;53.954;9.506;2023-02-03T01:59:39;101531.38;;;6.60;100.00
29315;BME280;16320;53.954;9.506;2023-02-03T02:02:45;101511.44;;;6.58;100.00
29315;BME280;16320;53.954;9.506;2023-02-03T02:06:09;101511.44;;;6.58;100.00
29315;BME280;16320;53.954;9.506;2023-02-03T02:09:14;101505.28;;;6.60;100.00
29315;BME280;16320;53.954;9.506;2023-02-03T02:12:19;101493.91;;;6.63;100.00
29315;BME280;16320;53.954;9.506;2023-02-03T02:16:05;101489.59;;;6.62;100.00
29315;BME280;16320;53.954;9.506;2023-02-03T02:34:18;101458.94;;;6.70;100.00
29315;BME280;16320;53.954;9.506;2023-02-03T02:37:43;101440.53;;;6.75;100.00
29315;BME280;16320;53.954;9.506;2023-02-03T02:41:33;101425.66;;;6.78;100.00
29315;BME280;16320;53.954;9.506;2023-02-03T02:44:57;101403.91;;;6.78;100.00
29315;BME280;16320;53.954;9.506;2023-02-03T02:48:09;101374.34;;;6.77;100.00
29315;BME280;16320;53.954;9.506;2023-02-03T02:51:17;101354.28;;;6.80;100.00
29315;BME280;16320;53.954;9.506;2023-02-03T02:54:24;101341.13;;;6.83;100.00
29315;BME280;16320;53.954;9.506;2023-02-03T02:57:33;101332.44;;;6.82;100.00
29315;BME280;16320;53.954;9.506;2023-02-03T03:00:40;101307.19;;;6.83;100.00
29315;BME280;16320;53.954;9.506;2023-02-03T03:03:46;101270.69;;;6.81;100.00
29315;BME280;16320;53.954;9.506;2023-02-03T03:07:15;101270.72;;;6.80;100.00
29315;BME280;16320;53.954;9.506;2023-02-03T03:10:24;101263.78;;;6.78;100.00
29315;BME280;16320;53.954;9.506;2023-02-03T03:13:41;101237.59;;;6.82;100.00
29315;BME280;16320;53.954;9.506;2023-02-03T03:16:58;101224.56;;;6.80;100.00
29315;BME280;16320;53.954;9.506;2023-02-03T03:20:09;101229.88;;;6.77;100.00
29315;BME280;16320;53.954;9.506;2023-02-03T03:23:26;101228.19;;;6.76;100.00
29315;BME280;16320;53.954;9.506;2023-02-03T03:26:40;101203.72;;;6.78;100.00
29315;BME280;16320;53.954;9.506;2023-02-03T03:30:01;101205.63;;;6.73;100.00
29315;BME280;16320;53.954;9.506;2023-02-03T03:33:08;101207.47;;;6.70;100.00
29315;BME280;16320;53.954;9.506;2023-02-03T03:36:36;101229.28;;;6.67;100.00
29315;BME280;16320;53.954;9.506;2023-02-03T03:39:56;101225.03;;;6.63;100.00
29315;BME280;16320;53.954;9.506;2023-02-03T03:43:20;101221.59;;;6.61;100.00
29315;BME280;16320;53.954;9.506;2023-02-03T03:46:43;101208.53;;;6.61;100.00
29315;BME280;16320;53.954;9.506;2023-02-03T03:49:50;101214.59;;;6.63;100.00
29315;BME280;16320;53.954;9.506;2023-02-03T03:53:00;101219.88;;;6.62;100.00
29315;BME280;16320;53.954;9.506;2023-02-03T03:56:08;101210.34;;;6.59;100.00
29315;BME280;16320;53.954;9.506;2023-02-03T03:59:20;101211.19;;;6.59;100.00
29315;BME280;16320;53.954;9.506;2023-02-03T04:02:26;101212.88;;;6.62;100.00
29315;BME280;16320;53.954;9.506;2023-02-03T04:05:33;101199.84;;;6.62;100.00
29315;BME280;16320;53.954;9.506;2023-02-03T04:08:37;101194.59;;;6.62;100.00
29315;BME280;16320;53.954;9.506;2023-02-03T04:11:42;101187.66;;;6.61;100.00
29315;BME280;16320;53.954;9.506;2023-02-03T04:15:05;101190.13;;;6.67;100.00
29315;BME280;16320;53.954;9.506;2023-02-03T04:18:13;101182.28;;;6.67;100.00
29315;BME280;16320;53.954;9.506;2023-02-03T04:21:17;101169.16;;;6.70;100.00
29315;BME280;16320;53.954;9.506;2023-02-03T04:24:21;101185.63;;;6.72;100.00
29315;BME280;16320;53.954;9.506;2023-02-03T04:27:26;101188.25;;;6.71;100.00
29315;BME280;16320;53.954;9.506;2023-02-03T04:30:30;101188.22;;;6.72;100.00
29315;BME280;16320;53.954;9.506;2023-02-03T04:33:35;101179.41;;;6.76;100.00
29315;BME280;16320;53.954;9.506;2023-02-03T04:36:40;101170.69;;;6.77;100.00
29315;BME280;16320;53.954;9.506;2023-02-03T04:39:44;101182.75;;;6.82;100.00
29315;BME280;16320;53.954;9.506;2023-02-03T04:42:48;101167.97;;;6.81;100.00
29315;BME280;16320;53.954;9.506;2023-02-03T04:45:52;101152.44;;;6.77;100.00
29315;BME280;16320;53.954;9.506;2023-02-03T04:48:57;101143.75;;;6.75;100.00
29315;BME280;16320;53.954;9.506;2023-02-03T04:52:01;101137.88;;;6.69;100.00
29315;BME280;16320;53.954;9.506;2023-02-03T04:55:06;101139.63;;;6.68;100.00
29315;BME280;16320;53.954;9.506;2023-02-03T04:58:11;101138.81;;;6.66;100.00
29315;BME280;16320;53.954;9.506;2023-02-03T05:01:15;101137.09;;;6.65;100.00
29315;BME280;16320;53.954;9.506;2023-02-03T05:04:20;101127.53;;;6.64;100.00
29315;BME280;16320;53.954;9.506;2023-02-03T05:07:24;101135.38;;;6.64;100.00
29315;BME280;16320;53.954;9.506;2023-02-03T05:10:29;101133.69;;;6.63;100.00
29315;BME280;16320;53.954;9.506;2023-02-03T05:13:33;101131.97;;;6.62;100.00
29315;BME280;16320;53.954;9.506;2023-02-03T05:16:38;101129.31;;;6.64;100.00
29315;BME280;16320;53.954;9.506;2023-02-03T05:19:43;101143.34;;;6.59;100.00
29315;BME280;16320;53.954;9.506;2023-02-03T05:22:47;101153.75;;;6.61;100.00
29315;BME280;16320;53.954;9.506;2023-02-03T05:25:52;101143.28;;;6.61;100.00
29315;BME280;16320;53.954;9.506;2023-02-03T05:28:56;101147.72;;;6.59;100.00
29315;BME280;16320;53.954;9.506;2023-02-03T05:32:00;101150.28;;;6.60;100.00
29315;BME280;16320;53.954;9.506;2023-02-03T05:35:06;101146.75;;;6.63;100.00
29315;BME280;16320;53.954;9.506;2023-02-03T05:38:10;101150.25;;;6.62;100.00
29315;BME280;16320;53.954;9.506;2023-02-03T05:41:15;101144.13;;;6.63;100.00
29315;BME280;16320;53.954;9.506;2023-02-03T05:44:38;101137.16;;;6.64;100.00
29315;BME280;16320;53.954;9.506;2023-02-03T05:47:42;101140.59;;;6.64;100.00
29315;BME280;16320;53.954;9.506;2023-02-03T05:50:46;101147.53;;;6.65;100.00
29315;BME280;16320;53.954;9.506;2023-02-03T05:53:51;101130.06;;;6.67;100.00
29315;BME280;16320;53.954;9.506;2023-02-03T05:56:56;101142.16;;;6.71;100.00
29315;BME280;16320;53.954;9.506;2023-02-03T06:00:01;101127.28;;;6.73;100.00
29315;BME280;16320;53.954;9.506;2023-02-03T06:03:07;101139.47;;;6.74;100.00
29315;BME280;16320;53.954;9.506;2023-02-03T06:06:12;101127.16;;;6.78;100.00
29315;BME280;16320;53.954;9.506;2023-02-03T06:09:16;101141.06;;;6.78;100.00
29315;BME280;16320;53.954;9.506;2023-02-03T06:12:20;101130.53;;;6.82;100.00
29315;BME280;16320;53.954;9.506;2023-02-03T06:15:25;101117.31;;;6.88;100.00
29315;BME280;16320;53.954;9.506;2023-02-03T06:18:30;101117.13;;;6.94;100.00
29315;BME280;16320;53.954;9.506;2023-02-03T06:21:34;101128.38;;;6.96;100.00
29315;BME280;16320;53.954;9.506;2023-02-03T06:24:39;101113.59;;;6.95;100.00
29315;BME280;16320;53.954;9.506;2023-02-03T06:27:43;101091.00;;;6.94;100.00
29315;BME280;16320;53.954;9.506;2023-02-03T06:30:50;101090.19;;;6.92;100.00
29315;BME280;16320;53.954;9.506;2023-02-03T06:33:56;101096.22;;;6.94;100.00
29315;BME280;16320;53.954;9.506;2023-02-03T06:37:00;101085.81;;;6.92;100.00
29315;BME280;16320;53.954;9.506;2023-02-03T06:40:05;101095.44;;;6.90;100.00
29315;BME280;16320;53.954;9.506;2023-02-03T06:43:10;101105.13;;;6.87;100.00
29315;BME280;16320;53.954;9.506;2023-02-03T06:46:14;101104.28;;;6.86;100.00
29315;BME280;16320;53.954;9.506;2023-02-03T06:49:18;101117.38;;;6.85;100.00
29315;BME280;16320;53.954;9.506;2023-02-03T06:52:22;101103.53;;;6.83;100.00
29315;BME280;16320;53.954;9.506;2023-02-03T06:55:27;101118.28;;;6.84;100.00
29315;BME280;16320;53.954;9.506;2023-02-03T06:58:31;101120.88;;;6.84;100.00
29315;BME280;16320;53.954;9.506;2023-02-03T07:01:36;101124.41;;;6.83;100.00
29315;BME280;16320;53.954;9.506;2023-02-03T07:04:41;101124.41;;;6.83;100.00
29315;BME280;16320;53.954;9.506;2023-02-03T07:07:49;101145.31;;;6.83;100.00
29315;BME280;16320;53.954;9.506;2023-02-03T07:10:54;101120.09;;;6.82;100.00
29315;BME280;16320;53.954;9.506;2023-02-03T07:13:59;101144.44;;;6.82;100.00
29315;BME280;16320;53.954;9.506;2023-02-03T07:17:04;101155.84;;;6.80;100.00
29315;BME280;16320;53.954;9.506;2023-02-03T07:20:09;101170.59;;;6.81;100.00
29315;BME280;16320;53.954;9.506;2023-02-03T07:23:14;101167.97;;;6.81;100.00
29315;BME280;16320;53.954;9.506;2023-02-03T07:26:19;101169.75;;;6.80;100.00
29315;BME280;16320;53.954;9.506;2023-02-03T07:29:26;101188.69;;;6.87;100.00
29315;BME280;16320;53.954;9.506;2023-02-03T07:32:30;101187.75;;;6.89;100.00
29315;BME280;16320;53.954;9.506;2023-02-03T07:35:37;101205.91;;;6.94;100.00
29315;BME280;16320;53.954;9.506;2023-02-03T07:38:42;101186.00;;;6.90;100.00
29315;BME280;16320;53.954;9.506;2023-02-03T07:41:47;101205.25;;;6.87;100.00
29315;BME280;16320;53.954;9.506;2023-02-03T07:44:51;101222.09;;;6.75;100.00
29315;BME280;16320;53.954;9.506;2023-02-03T07:47:56;101201.34;;;6.69;100.00
29315;BME280;16320;53.954;9.506;2023-02-03T07:51:03;101229.03;;;6.76;100.00
29315;BME280;16320;53.954;9.506;2023-02-03T07:54:08;101214.94;;;6.82;100.00
29315;BME280;16320;53.954;9.506;2023-02-03T07:57:13;101239.09;;;6.89;100.00
29315;BME280;16320;53.954;9.506;2023-02-03T08:00:18;101234.75;;;6.89;100.00
29315;BME280;16320;53.954;9.506;2023-02-03T08:03:22;101233.88;;;6.89;100.00
29315;BME280;16320;53.954;9.506;2023-02-03T08:06:30;101235.78;;;6.84;100.00
29315;BME280;16320;53.954;9.506;2023-02-03T08:09:35;101241.97;;;6.81;100.00
29315;BME280;16320;53.954;9.506;2023-02-03T08:12:40;101238.50;;;6.79;100.00
29315;BME280;16320;53.954;9.506;2023-02-03T08:15:48;101249.09;;;6.74;100.00
29315;BME280;16320;53.954;9.506;2023-02-03T08:18:53;101232.53;;;6.75;100.00
29315;BME280;16320;53.954;9.506;2023-02-03T08:21:57;101244.84;;;6.70;100.00
29315;BME280;16320;53.954;9.506;2023-02-03T08:25:03;101241.44;;;6.68;100.00
29315;BME280;16320;53.954;9.506;2023-02-03T08:28:07;101231.06;;;6.65;100.00
29315;BME280;16320;53.954;9.506;2023-02-03T08:31:12;101208.47;;;6.64;100.00
29315;BME280;16320;53.954;9.506;2023-02-03T08:34:17;101196.41;;;6.60;100.00
29315;BME280;16320;53.954;9.506;2023-02-03T08:37:22;101158.19;;;6.57;100.00
29315;BME280;16320;53.954;9.506;2023-02-03T08:40:29;101125.13;;;6.58;100.00
29315;BME280;16320;53.954;9.506;2023-02-03T08:43:34;101117.41;;;6.55;100.00
29315;BME280;16320;53.954;9.506;2023-02-03T08:46:39;101102.72;;;6.51;100.00
29315;BME280;16320;53.954;9.506;2023-02-03T08:49:47;101113.06;;;6.54;100.00
29315;BME280;16320;53.954;9.506;2023-02-03T08:52:51;101093.03;;;6.54;100.00
29315;BME280;16320;53.954;9.506;2023-02-03T08:55:56;101080.81;;;6.56;100.00
29315;BME280;16320;53.954;9.506;2023-02-03T08:59:00;101082.53;;;6.56;100.00
29315;BME280;16320;53.954;9.506;2023-02-03T09:02:07;101097.38;;;6.55;100.00
29315;BME280;16320;53.954;9.506;2023-02-03T09:05:13;101093.81;;;6.58;100.00
29315;BME280;16320;53.954;9.506;2023-02-03T09:08:19;101094.75;;;6.55;100.00
29315;BME280;16320;53.954;9.506;2023-02-03T09:11:23;101085.13;;;6.57;100.00
29315;BME280;16320;53.954;9.506;2023-02-03T09:14:32;101103.44;;;6.56;100.00
29315;BME280;16320;53.954;9.506;2023-02-03T09:17:37;101087.00;;;6.52;100.00
29315;BME280;16320;53.954;9.506;2023-02-03T09:20:41;101088.69;;;6.55;100.00
29315;BME280;16320;53.954;9.506;2023-02-03T09:23:46;101092.09;;;6.57;100.00
29315;BME280;16320;53.954;9.506;2023-02-03T09:26:51;101097.31;;;6.57;100.00
29315;BME280;16320;53.954;9.506;2023-02-03T09:29:55;101092.19;;;6.54;100.00
29315;BME280;16320;53.954;9.506;2023-02-03T09:33:01;101084.31;;;6.55;100.00
29315;BME280;16320;53.954;9.506;2023-02-03T09:36:07;101079.06;;;6.57;100.00
29315;BME280;16320;53.954;9.506;2023-02-03T09:39:11;101099.94;;;6.57;100.00
29315;BME280;16320;53.954;9.506;2023-02-03T09:43:00;101110.28;;;6.60;100.00
29315;BME280;16320;53.954;9.506;2023-02-03T09:46:41;101112.00;;;6.59;100.00
29315;BME280;16320;53.954;9.506;2023-02-03T09:49:56;101115.38;;;6.65;100.00
29315;BME280;16320;53.954;9.506;2023-02-03T09:53:29;101106.44;;;6.72;100.00
29315;BME280;16320;53.954;9.506;2023-02-03T09:56:35;101119.38;;;6.76;100.00
29315;BME280;16320;53.954;9.506;2023-02-03T09:59:41;101118.53;;;6.76;100.00
29315;BME280;16320;53.954;9.506;2023-02-03T10:06:38;101133.31;;;6.75;100.00
29315;BME280;16320;53.954;9.506;2023-02-03T10:10:21;101117.59;;;6.77;100.00
29315;BME280;16320;53.954;9.506;2023-02-03T10:13:30;101130.72;;;6.75;100.00
29315;BME280;16320;53.954;9.506;2023-02-03T10:23:40;101131.03;;;6.65;100.00
29315;BME280;16320;53.954;9.506;2023-02-03T10:26:46;101138.91;;;6.63;100.00
29315;BME280;16320;53.954;9.506;2023-02-03T10:33:11;101150.25;;;6.62;100.00
29315;BME280;16320;53.954;9.506;2023-02-03T10:36:23;101171.06;;;6.64;100.00
29315;BME280;16320;53.954;9.506;2023-02-03T10:39:48;101165.69;;;6.70;100.00
29315;BME280;16320;53.954;9.506;2023-02-03T10:42:54;101162.75;;;6.81;100.00
29315;BME280;16320;53.954;9.506;2023-02-03T10:46:32;101175.34;;;6.97;100.00
29315;BME280;16320;53.954;9.506;2023-02-03T10:49:38;101163.66;;;7.09;100.00
29315;BME280;16320;53.954;9.506;2023-02-03T10:52:42;101171.50;;;7.09;100.00
29315;BME280;16320;53.954;9.506;2023-02-03T10:55:58;101180.97;;;7.13;100.00
29315;BME280;16320;53.954;9.506;2023-02-03T10:59:05;101163.47;;;7.15;100.00
29315;BME280;16320;53.954;9.506;2023-02-03T11:02:26;101194.59;;;7.23;100.00
29315;BME280;16320;53.954;9.506;2023-02-03T11:05:33;101165.00;;;7.23;100.00
29315;BME280;16320;53.954;9.506;2023-02-03T11:08:42;101179.06;;;7.19;100.00
29315;BME280;16320;53.954;9.506;2023-02-03T11:11:47;101173.94;;;7.15;100.00
29315;BME280;16320;53.954;9.506;2023-02-03T11:14:52;101187.03;;;7.14;100.00
29315;BME280;16320;53.954;9.506;2023-02-03T11:17:58;101195.59;;;7.19;100.00
29315;BME280;16320;53.954;9.506;2023-02-03T11:21:41;101187.69;;;7.21;100.00
29315;BME280;16320;53.954;9.506;2023-02-03T11:24:47;101184.09;;;7.25;100.00
29315;BME280;16320;53.954;9.506;2023-02-03T11:27:53;101164.72;;;7.32;100.00
29315;BME280;16320;53.954;9.506;2023-02-03T11:30:59;101179.53;;;7.31;100.00
29315;BME280;16320;53.954;9.506;2023-02-03T11:34:16;101163.97;;;7.28;100.00
29315;BME280;16320;53.954;9.506;2023-02-03T11:37:39;101174.22;;;7.35;100.00
29315;BME280;16320;53.954;9.506;2023-02-03T11:40:44;101191.38;;;7.43;100.00
29315;BME280;16320;53.954;9.506;2023-02-03T11:43:54;101146.34;;;7.62;100.00
29315;BME280;16320;53.954;9.506;2023-02-03T11:47:11;101189.97;;;7.60;100.00
29315;BME280;16320;53.954;9.506;2023-02-03T11:50:36;101177.09;;;7.54;100.00
29315;BME280;16320;53.954;9.506;2023-02-03T12:04:44;101194.34;;;7.31;100.00
29315;BME280;16320;53.954;9.506;2023-02-03T12:11:39;101208.25;;;7.33;100.00
29315;BME280;16320;53.954;9.506;2023-02-03T12:15:14;101213.38;;;7.36;100.00
29315;BME280;16320;53.954;9.506;2023-02-03T12:18:31;101186.41;;;7.34;100.00
29315;BME280;16320;53.954;9.506;2023-02-03T12:25:06;101194.25;;;7.34;100.00
29315;BME280;16320;53.954;9.506;2023-02-03T12:28:42;101208.25;;;7.33;100.00
29315;BME280;16320;53.954;9.506;2023-02-03T12:35:40;101232.28;;;7.44;100.00
29315;BME280;16320;53.954;9.506;2023-02-03T12:39:18;101209.56;;;7.46;100.00
29315;BME280;16320;53.954;9.506;2023-02-03T12:42:36;101199.31;;;7.40;100.00
29315;BME280;16320;53.954;9.506;2023-02-03T12:45:53;101197.75;;;7.35;100.00
29315;BME280;16320;53.954;9.506;2023-02-03T12:52:46;101222.34;;;7.27;100.00
29315;BME280;16320;53.954;9.506;2023-02-03T12:56:08;101223.31;;;7.25;100.00
29315;BME280;16320;53.954;9.506;2023-02-03T12:59:19;101232.16;;;7.19;100.00
29315;BME280;16320;53.954;9.506;2023-02-03T13:02:29;101229.59;;;7.18;100.00
29315;BME280;16320;53.954;9.506;2023-02-03T13:13:16;101226.19;;;7.15;100.00
29315;BME280;16320;53.954;9.506;2023-02-03T13:16:31;101229.50;;;7.21;100.00
29315;BME280;16320;53.954;9.506;2023-02-03T13:20:19;101224.38;;;7.18;100.00
29315;BME280;16320;53.954;9.506;2023-02-03T13:23:25;101249.50;;;7.22;100.00
29315;BME280;16320;53.954;9.506;2023-02-03T13:26:39;101239.16;;;7.19;100.00
29315;BME280;16320;53.954;9.506;2023-02-03T13:44:00;101268.50;;;6.97;100.00
29315;BME280;16320;53.954;9.506;2023-02-03T13:47:12;101268.75;;;6.88;100.00
29315;BME280;16320;53.954;9.506;2023-02-03T13:50:25;101300.22;;;6.83;100.00
29315;BME280;16320;53.954;9.506;2023-02-03T13:53:35;101301.16;;;6.79;100.00
29315;BME280;16320;53.954;9.506;2023-02-03T13:56:58;101302.94;;;6.78;100.00
29315;BME280;16320;53.954;9.506;2023-02-03T14:01:25;101302.06;;;6.80;100.00
29315;BME280;16320;53.954;9.506;2023-02-03T14:03:54;101306.41;;;6.79;100.00
29315;BME280;16320;53.954;9.506;2023-02-03T14:07:01;101302.13;;;6.76;100.00
29315;BME280;16320;53.954;9.506;2023-02-03T14:13:20;101300.47;;;6.72;100.00
29315;BME280;16320;53.954;9.506;2023-02-03T14:16:24;101306.66;;;6.70;100.00
29315;BME280;16320;53.954;9.506;2023-02-03T14:22:38;101335.41;;;6.68;100.00
29315;BME280;16320;53.954;9.506;2023-02-03T14:25:51;101319.59;;;6.74;100.00
29315;BME280;16320;53.954;9.506;2023-02-03T14:28:57;101316.16;;;6.72;100.00
29315;BME280;16320;53.954;9.506;2023-02-03T14:32:11;101323.03;;;6.76;100.00
29315;BME280;16320;53.954;9.506;2023-02-03T14:35:32;101326.59;;;6.72;100.00
29315;BME280;16320;53.954;9.506;2023-02-03T14:38:37;101321.38;;;6.72;100.00
29315;BME280;16320;53.954;9.506;2023-02-03T14:45:36;101337.09;;;6.69;100.00
29315;BME280;16320;53.954;9.506;2023-02-03T14:59:23;101352.69;;;6.72;100.00
29315;BME280;16320;53.954;9.506;2023-02-03T15:02:31;101370.16;;;6.70;100.00
29315;BME280;16320;53.954;9.506;2023-02-03T15:05:42;101375.47;;;6.67;100.00
29315;BME280;16320;53.954;9.506;2023-02-03T15:08:47;101380.78;;;6.63;100.00
29315;BME280;16320;53.954;9.506;2023-02-03T15:11:52;101379.78;;;6.68;100.00
29315;BME280;16320;53.954;9.506;2023-02-03T15:15:20;101375.47;;;6.67;100.00
29315;BME280;16320;53.954;9.506;2023-02-03T15:18:34;101360.75;;;6.65;100.00
29315;BME280;16320;53.954;9.506;2023-02-03T15:21:41;101363.41;;;6.63;100.00
29315;BME280;16320;53.954;9.506;2023-02-03T15:24:46;101377.34;;;6.62;100.00
29315;BME280;16320;53.954;9.506;2023-02-03T15:27:51;101374.88;;;6.56;100.00
29315;BME280;16320;53.954;9.506;2023-02-03T15:31:24;101365.34;;;6.55;100.00
29315;BME280;16320;53.954;9.506;2023-02-03T15:34:40;101367.19;;;6.50;100.00
29315;BME280;16320;53.954;9.506;2023-02-03T15:38:33;101388.97;;;6.49;100.00
29315;BME280;16320;53.954;9.506;2023-02-03T15:41:29;101398.50;;;6.50;100.00
29315;BME280;16320;53.954;9.506;2023-02-03T15:44:55;101400.28;;;6.48;100.00
29315;BME280;16320;53.954;9.506;2023-02-03T15:48:17;101409.84;;;6.49;100.00
29315;BME280;16320;53.954;9.506;2023-02-03T15:52:00;101410.69;;;6.49;100.00
29315;BME280;16320;53.954;9.506;2023-02-03T15:55:35;101435.97;;;6.47;100.00
29315;BME280;16320;53.954;9.506;2023-02-03T15:58:45;101432.66;;;6.40;100.00
29315;BME280;16320;53.954;9.506;2023-02-03T16:01:51;101446.63;;;6.38;100.00
29315;BME280;16320;53.954;9.506;2023-02-03T16:04:56;101450.06;;;6.40;100.00
29315;BME280;16320;53.954;9.506;2023-02-03T16:11:39;101479.06;;;6.26;100.00
29315;BME280;16320;53.954;9.506;2023-02-03T16:14:44;101501.84;;;6.18;100.00
29315;BME280;16320;53.954;9.506;2023-02-03T16:17:54;101507.09;;;6.16;100.00
29315;BME280;16320;53.954;9.506;2023-02-03T16:21:02;101515.78;;;6.17;100.00
29315;BME280;16320;53.954;9.506;2023-02-03T16:24:38;101516.69;;;6.16;100.00
29315;BME280;16320;53.954;9.506;2023-02-03T16:28:00;101540.16;;;6.16;100.00
29315;BME280;16320;53.954;9.506;2023-02-03T16:31:24;101526.16;;;6.20;100.00
29315;BME280;16320;53.954;9.506;2023-02-03T16:34:46;101529.59;;;6.22;100.00
29315;BME280;16320;53.954;9.506;2023-02-03T16:38:18;101533.03;;;6.24;100.00
29315;BME280;16320;53.954;9.506;2023-02-03T16:41:41;101544.34;;;6.23;100.00
29315;BME280;16320;53.954;9.506;2023-02-03T16:45:16;101553.19;;;6.17;100.00
29315;BME280;16320;53.954;9.506;2023-02-03T16:48:40;101549.81;;;6.11;100.00
29315;BME280;16320;53.954;9.506;2023-02-03T16:52:03;101565.69;;;6.00;100.00
29315;BME280;16320;53.954;9.506;2023-02-03T16:55:10;101587.53;;;5.91;100.00
29315;BME280;16320;53.954;9.506;2023-02-03T16:58:14;101594.56;;;5.87;100.00
29315;BME280;16320;53.954;9.506;2023-02-03T17:01:19;101618.94;;;5.85;100.00
29315;BME280;16320;53.954;9.506;2023-02-03T17:04:24;101629.47;;;5.80;100.00
29315;BME280;16320;53.954;9.506;2023-02-03T17:07:28;101646.91;;;5.77;100.00
29315;BME280;16320;53.954;9.506;2023-02-03T17:10:34;101642.63;;;5.71;100.00
29315;BME280;16320;53.954;9.506;2023-02-03T17:13:39;101654.88;;;5.67;100.00
29315;BME280;16320;53.954;9.506;2023-02-03T17:16:45;101662.69;;;5.67;100.00
29315;BME280;16320;53.954;9.506;2023-02-03T17:19:50;101679.28;;;5.60;100.00
29315;BME280;16320;53.954;9.506;2023-02-03T17:22:54;101701.03;;;5.59;100.00
29315;BME280;16320;53.954;9.506;2023-02-03T17:25:59;101687.22;;;5.54;100.00
29315;BME280;16320;53.954;9.506;2023-02-03T17:29:04;101702.88;;;5.54;100.00
29315;BME280;16320;53.954;9.506;2023-02-03T17:32:08;101711.56;;;5.53;100.00
29315;BME280;16320;53.954;9.506;2023-02-03T17:35:16;101723.72;;;5.54;100.00
29315;BME280;16320;53.954;9.506;2023-02-03T17:38:20;101725.41;;;5.55;100.00
29315;BME280;16320;53.954;9.506;2023-02-03T17:41:25;101729.75;;;5.56;100.00
29315;BME280;16320;53.954;9.506;2023-02-03T17:44:49;101733.19;;;5.58;100.00
29315;BME280;16320;53.954;9.506;2023-02-03T17:48:11;101740.13;;;5.59;100.00
29315;BME280;16320;53.954;9.506;2023-02-03T17:51:34;101748.84;;;5.58;100.00
29315;BME280;16320;53.954;9.506;2023-02-03T17:54:56;101760.03;;;5.63;100.00
29315;BME280;16320;53.954;9.506;2023-02-03T17:58:01;101771.28;;;5.67;100.00
29315;BME280;16320;53.954;9.506;2023-02-03T18:01:14;101773.03;;;5.68;100.00
29315;BME280;16320;53.954;9.506;2023-02-03T18:04:20;101780.81;;;5.69;100.00
29315;BME280;16320;53.954;9.506;2023-02-03T18:07:25;101771.19;;;5.73;100.00
29315;BME280;16320;53.954;9.506;2023-02-03T18:10:29;101763.38;;;5.73;100.00
29315;BME280;16320;53.954;9.506;2023-02-03T18:13:39;101786.81;;;5.75;100.00
29315;BME280;16320;53.954;9.506;2023-02-03T18:16:44;101796.34;;;5.79;100.00